Terminal Aerodrome Forecast
Issued by NWS

Home | Current Version | Previous Version | Graphics & Text | Print | Product List | Glossary On
Versions: 1 2 3 4 5 6 7 8 9 10 11 12 13
000
FTUS43 KTOP 211100
TAFMHK
TAF
KMHK 211120Z 2112/2212 19008KT P6SM SCT150
     FM211500 20014G24KT P6SM SCT150
     FM220100 18010KT P6SM SCT150=

USA.gov is the U.S. government's official web portal to all federal, state and local government web resources and services.